Time;durP1;ratioP1;P1;durP2;ratioP2;P2;SDS_P1;SDS_P2;PMS_P1;PMS_P2;Temp;Humidity;BMP_temperature;BMP_pressure;BME280_temperature;BME280_humidity;BME280_pressure;Samples;Min_cycle;Max_cycle;Signal;HPM_P1;HPM_P2
2022/05/09 00:01:53;;;;;;;2.83;1.67;;;;;;;2.66;74.61;101817.41;5096128;28;20032;-73
2022/05/09 00:04:20;;;;;;;2.90;1.73;;;;;;;2.65;74.78;101830.13;5114068;28;20176;-74
2022/05/09 00:06:47;;;;;;;1.75;1.30;;;;;;;2.65;74.79;101822.00;5112404;28;20536;-73
2022/05/09 00:09:17;;;;;;;2.88;1.67;;;;;;;2.65;74.50;101824.69;5111959;28;20039;-74
2022/05/09 00:11:43;;;;;;;4.25;2.03;;;;;;;2.62;74.58;101825.09;5098133;28;20654;-73
2022/05/09 00:14:18;;;;;;;3.30;1.90;;;;;;;2.65;74.58;101832.00;5093836;28;20128;-74
2022/05/09 00:16:44;;;;;;;3.90;2.03;;;;;;;2.61;74.67;101831.56;5107773;28;20039;-74
2022/05/09 00:19:17;;;;;;;3.58;1.85;;;;;;;2.51;74.74;101832.94;5092978;28;20032;-73
2022/05/09 00:21:43;;;;;;;3.03;1.98;;;;;;;2.49;75.18;101837.72;5098204;28;20521;-74
2022/05/09 00:24:13;;;;;;;2.55;1.58;;;;;;;2.42;74.98;101837.66;5092109;28;20040;-74
2022/05/09 00:26:45;;;;;;;3.50;1.65;;;;;;;2.42;74.71;101841.22;5093387;28;20052;-74
2022/05/09 00:29:13;;;;;;;3.15;1.77;;;;;;;2.39;74.44;101844.31;5092489;28;20043;-74
2022/05/09 00:31:39;;;;;;;2.13;1.50;;;;;;;2.37;74.54;101851.81;5094159;28;20071;-74
2022/05/09 00:34:06;;;;;;;2.58;1.70;;;;;;;2.36;74.47;101841.16;5091432;28;20107;-74
2022/05/09 00:36:32;;;;;;;3.22;1.90;;;;;;;2.34;74.44;101851.38;5091712;28;20036;-74
2022/05/09 00:38:59;;;;;;;1.73;1.30;;;;;;;2.30;74.18;101848.22;5100998;28;20043;-74
2022/05/09 00:41:34;;;;;;;3.22;1.60;;;;;;;2.25;75.20;101852.53;5102306;28;20146;-74
2022/05/09 00:44:27;;;;;;;2.70;1.60;;;;;;;2.19;74.52;101845.22;5105355;28;20407;-74
2022/05/09 00:46:55;;;;;;;2.97;1.83;;;;;;;2.17;74.88;101844.56;5086198;28;20036;-74
2022/05/09 00:49:27;;;;;;;2.35;1.38;;;;;;;2.13;74.58;101852.25;5093026;28;20201;-74
2022/05/09 00:52:04;;;;;;;2.95;1.67;;;;;;;2.12;74.57;101853.28;5098732;28;20092;-74
2022/05/09 00:54:37;;;;;;;2.92;1.75;;;;;;;2.18;74.66;101852.50;5110750;28;20035;-73
2022/05/09 00:57:11;;;;;;;3.67;1.85;;;;;;;2.19;74.63;101854.16;5103230;28;20036;-73
2022/05/09 00:59:39;;;;;;;3.80;1.80;;;;;;;2.22;74.25;101850.22;5078354;28;20417;-73
2022/05/09 01:02:05;;;;;;;2.47;1.70;;;;;;;2.17;74.17;101850.00;5107213;28;20093;-74
2022/05/09 01:04:33;;;;;;;2.58;1.95;;;;;;;2.16;74.39;101845.59;5092714;28;20048;-73
2022/05/09 01:06:59;;;;;;;3.38;1.77;;;;;;;2.13;74.06;101852.25;5098630;28;20050;-73
2022/05/09 01:09:26;;;;;;;4.90;1.77;;;;;;;2.15;74.19;101854.75;5091095;28;20119;-73
2022/05/09 01:11:52;;;;;;;2.63;1.77;;;;;;;2.21;74.05;101853.97;5109914;28;20074;-73
2022/05/09 01:14:27;;;;;;;4.65;2.17;;;;;;;2.16;74.25;101853.72;5113010;28;20071;-74
2022/05/09 01:16:57;;;;;;;4.18;2.40;;;;;;;2.10;74.14;101856.19;5111676;28;20525;-73
2022/05/09 01:19:33;;;;;;;2.53;1.92;;;;;;;2.07;73.82;101866.56;5090410;28;20036;-74
2022/05/09 01:22:00;;;;;;;3.67;1.83;;;;;;;2.01;74.27;101860.06;5092626;28;20040;-73
2022/05/09 01:24:28;;;;;;;4.43;2.25;;;;;;;1.99;74.23;101856.72;5102480;28;20028;-74
2022/05/09 01:26:54;;;;;;;2.60;1.70;;;;;;;1.97;74.09;101872.31;5092341;28;20052;-74
2022/05/09 01:29:24;;;;;;;3.78;2.00;;;;;;;1.95;74.03;101868.97;5108056;28;20043;-73
2022/05/09 01:31:51;;;;;;;2.50;1.65;;;;;;;1.90;73.69;101868.69;5099352;28;20043;-73
2022/05/09 01:34:17;;;;;;;2.55;1.95;;;;;;;1.90;74.24;101868.69;5093691;28;20036;-74
2022/05/09 01:36:44;;;;;;;3.33;2.00;;;;;;;1.90;74.35;101870.56;5112808;27;20043;-73
2022/05/09 01:39:11;;;;;;;5.07;2.10;;;;;;;1.91;73.99;101873.09;5111313;28;20084;-73
2022/05/09 01:41:43;;;;;;;5.57;2.03;;;;;;;1.91;73.86;101877.66;5093944;28;20040;-73
2022/05/09 01:44:11;;;;;;;3.75;2.00;;;;;;;1.90;73.79;101878.69;5106794;28;20043;-73
2022/05/09 01:49:29;;;;;;;4.18;2.55;;;;;;;1.96;73.59;101873.34;5111521;28;20525;-74
2022/05/09 01:49:30;;;;;;;2.63;2.08;;;;;;;1.97;73.68;101877.72;5100058;28;20470;-73
2022/05/09 01:51:58;;;;;;;3.88;2.42;;;;;;;1.97;73.55;101882.31;5090557;28;20529;-74
2022/05/09 01:54:23;;;;;;;3.80;2.40;;;;;;;2.01;73.54;101883.59;5092213;28;20036;-72
2022/05/09 01:56:49;;;;;;;3.70;2.40;;;;;;;1.99;73.61;101889.19;5104536;28;20038;-74
2022/05/09 01:59:15;;;;;;;4.55;2.20;;;;;;;1.97;73.52;101883.16;5102105;28;20044;-74
2022/05/09 02:01:50;;;;;;;6.55;2.60;;;;;;;1.96;73.05;101891.47;5094074;28;20063;-74
2022/05/09 02:04:23;;;;;;;4.00;2.03;;;;;;;1.97;72.68;101893.97;5110154;28;20067;-74
2022/05/09 02:06:49;;;;;;;3.22;2.03;;;;;;;1.99;72.37;101896.47;5110848;28;20529;-73
2022/05/09 02:09:15;;;;;;;2.83;1.90;;;;;;;2.03;72.69;101897.75;5111845;28;20046;-73
2022/05/09 02:11:41;;;;;;;2.28;1.80;;;;;;;2.05;72.39;101906.53;5103847;28;20040;-73
2022/05/09 02:14:06;;;;;;;4.47;2.45;;;;;;;2.07;72.51;101902.59;5090083;28;20044;-73
2022/05/09 02:16:32;;;;;;;4.03;2.35;;;;;;;2.19;71.94;101902.91;5091527;28;20046;-73
2022/05/09 02:18:58;;;;;;;3.10;2.10;;;;;;;2.26;71.85;101905.69;5101385;28;20138;-73
2022/05/09 02:21:23;;;;;;;4.32;2.50;;;;;;;2.30;71.72;101910.53;5111628;28;20067;-73
2022/05/09 02:23:49;;;;;;;5.00;1.92;;;;;;;2.31;71.05;101917.59;5103539;28;20073;-73
2022/05/09 02:26:15;;;;;;;3.15;2.05;;;;;;;2.37;70.79;101915.97;5089998;28;20036;-73
2022/05/09 02:28:40;;;;;;;3.38;2.00;;;;;;;2.49;70.87;101909.00;5091608;28;20063;-73
2022/05/09 02:31:06;;;;;;;4.43;2.05;;;;;;;2.55;70.08;101912.78;5091358;28;20121;-73
2022/05/09 02:33:32;;;;;;;3.03;2.17;;;;;;;2.55;70.30;101918.22;5097756;28;20402;-74
2022/05/09 02:35:57;;;;;;;2.88;1.80;;;;;;;2.57;69.82;101911.56;5094213;28;20078;-74
2022/05/09 02:38:24;;;;;;;3.85;2.10;;;;;;;2.61;69.34;101917.44;5096603;28;20115;-74
2022/05/09 02:40:52;;;;;;;4.28;2.10;;;;;;;2.67;68.91;101917.47;5100482;28;20390;-74
2022/05/09 02:43:18;;;;;;;2.05;1.77;;;;;;;2.71;68.51;101916.03;5109687;28;20036;-74
2022/05/09 02:45:44;;;;;;;3.00;1.73;;;;;;;2.82;68.82;101920.09;5104056;28;20410;-74
2022/05/09 02:48:10;;;;;;;3.28;1.88;;;;;;;2.96;68.17;101931.84;5105141;28;20047;-75
2022/05/09 02:50:36;;;;;;;3.13;1.85;;;;;;;3.15;67.88;101923.00;5094054;28;20036;-74
2022/05/09 02:53:02;;;;;;;1.77;1.50;;;;;;;3.26;67.43;101925.09;5089762;28;20059;-73
2022/05/09 02:55:28;;;;;;;3.53;1.95;;;;;;;3.38;66.67;101928.09;5089552;28;20040;-73
2022/05/09 02:57:54;;;;;;;5.68;1.70;;;;;;;3.50;65.85;101925.66;5094994;28;20031;-73
2022/05/09 03:00:24;;;;;;;2.13;1.60;;;;;;;3.70;65.29;101939.28;5110595;28;20032;-73
2022/05/09 03:05:36;;;;;;;3.65;1.52;;;;;;;4.12;63.53;101936.25;5090599;28;20032;-73
2022/05/09 03:08:02;;;;;;;2.17;1.40;;;;;;;4.29;62.61;101928.53;5089406;28;20047;-73
2022/05/09 03:10:29;;;;;;;1.58;1.48;;;;;;;4.51;62.00;101938.16;5095225;28;20036;-73
2022/05/09 03:13:01;;;;;;;3.35;1.25;;;;;;;4.71;60.59;101937.31;5101190;28;20135;-73
2022/05/09 03:15:28;;;;;;;2.45;1.17;;;;;;;4.77;60.50;101936.47;5090703;28;20122;-73
2022/05/09 03:17:54;;;;;;;2.13;1.52;;;;;;;4.89;59.91;101939.38;5090658;28;20056;-73
2022/05/09 03:20:21;;;;;;;1.98;1.40;;;;;;;5.06;58.92;101944.16;5089031;28;20476;-73
2022/05/09 03:22:48;;;;;;;1.98;1.42;;;;;;;5.25;58.27;101944.31;5090686;28;20082;-72
2022/05/09 03:25:14;;;;;;;4.13;1.50;;;;;;;5.39;57.97;101946.78;5105537;28;20043;-73
2022/05/09 03:27:39;;;;;;;1.98;1.08;;;;;;;5.49;56.96;101946.31;5104393;28;20493;-72
2022/05/09 03:30:06;;;;;;;3.30;1.40;;;;;;;5.63;56.49;101952.56;5089158;28;20047;-72
2022/05/09 03:32:32;;;;;;;3.05;1.42;;;;;;;5.84;55.97;101948.69;5072504;28;20032;-73
2022/05/09 03:34:57;;;;;;;3.03;1.40;;;;;;;5.89;55.66;101951.56;5101740;28;20044;-73
2022/05/09 03:37:23;;;;;;;2.20;1.45;;;;;;;6.04;55.22;101955.72;5109794;28;20035;-72
2022/05/09 03:39:49;;;;;;;1.63;1.25;;;;;;;6.27;54.59;101965.22;5092282;28;20036;-73
2022/05/09 03:42:14;;;;;;;1.38;1.08;;;;;;;6.27;53.57;101965.22;5091134;28;20044;-73
2022/05/09 03:44:40;;;;;;;1.85;1.27;;;;;;;6.33;53.35;101965.19;5090598;28;20472;-73
2022/05/09 03:47:05;;;;;;;1.55;1.23;;;;;;;6.46;52.67;101972.44;5090396;28;20044;-73
2022/05/09 03:49:31;;;;;;;2.38;1.27;;;;;;;6.43;52.64;101970.16;5090225;28;20032;-73
2022/05/09 03:51:56;;;;;;;3.05;1.58;;;;;;;6.55;52.73;101972.97;5090196;28;20039;-73
2022/05/09 03:54:23;;;;;;;2.50;1.30;;;;;;;6.61;52.20;101970.22;5089198;28;20093;-73
2022/05/09 03:56:48;;;;;;;1.88;1.15;;;;;;;6.64;52.00;101971.66;5100011;28;20592;-72
2022/05/09 03:59:14;;;;;;;2.92;1.13;;;;;;;6.75;51.81;101973.66;5107768;28;20040;-73
2022/05/09 04:01:40;;;;;;;1.60;1.00;;;;;;;6.93;52.05;101981.88;5093730;28;20127;-72
2022/05/09 04:04:05;;;;;;;1.75;1.15;;;;;;;7.08;51.10;101970.59;5094544;28;20051;-73
2022/05/09 04:06:32;;;;;;;1.75;1.00;;;;;;;7.13;50.40;101972.69;5092100;28;20421;-72
2022/05/09 04:08:58;;;;;;;2.17;1.02;;;;;;;7.31;50.42;101978.16;5092802;28;20088;-72
2022/05/09 04:11:23;;;;;;;1.80;1.20;;;;;;;7.43;49.61;101976.31;5106047;28;20036;-72
2022/05/09 04:13:51;;;;;;;2.63;1.40;;;;;;;7.50;49.56;101982.56;5102350;28;20562;-73
2022/05/09 04:19:01;;;;;;;4.28;1.20;;;;;;;7.92;48.65;101982.66;5094060;28;20073;-73
2022/05/09 04:21:27;;;;;;;1.58;1.17;;;;;;;8.10;48.36;101977.16;5106200;27;20035;-73
2022/05/09 04:23:58;;;;;;;2.92;1.20;;;;;;;8.36;47.78;101983.34;5107566;27;20047;-73
2022/05/09 04:26:27;;;;;;;1.42;1.02;;;;;;;8.53;47.29;101988.97;5111364;27;20077;-73
2022/05/09 04:28:52;;;;;;;2.38;1.05;;;;;;;8.71;46.40;101984.25;5107503;28;20032;-72
2022/05/09 04:31:22;;;;;;;2.47;0.90;;;;;;;8.79;46.52;101990.44;5112214;27;20032;-73
2022/05/09 04:33:49;;;;;;;1.75;0.90;;;;;;;9.06;45.64;101988.91;5116231;27;20039;-73
2022/05/09 04:36:16;;;;;;;2.55;0.95;;;;;;;9.14;45.99;101990.44;5111528;27;20047;-73
2022/05/09 04:38:43;;;;;;;1.55;1.00;;;;;;;9.25;45.00;101987.72;5113708;27;20039;-73
2022/05/09 04:41:10;;;;;;;1.50;1.10;;;;;;;9.46;44.49;101986.25;5111909;27;20031;-73
2022/05/09 04:43:36;;;;;;;1.10;1.00;;;;;;;9.92;43.75;101995.44;5110799;27;20071;-71
2022/05/09 04:46:04;;;;;;;2.00;1.10;;;;;;;10.01;43.52;101995.88;5107648;28;20042;-73
2022/05/09 04:48:30;;;;;;;2.88;1.17;;;;;;;9.89;43.29;101999.50;5103399;28;20031;-71
2022/05/09 04:50:57;;;;;;;1.65;1.00;;;;;;;10.02;42.69;101998.38;5105188;28;20528;-71
2022/05/09 04:53:23;;;;;;;1.48;0.90;;;;;;;10.23;42.17;102002.38;5102566;28;20036;-72
2022/05/09 04:55:49;;;;;;;3.20;1.20;;;;;;;10.43;41.84;102002.78;5102586;27;20046;-72
2022/05/09 04:58:18;;;;;;;2.72;0.90;;;;;;;10.56;42.11;102005.19;5092841;28;20035;-72
2022/05/09 05:00:43;;;;;;;1.95;1.00;;;;;;;10.54;41.63;101998.28;5110814;28;20043;-72
2022/05/09 05:03:09;;;;;;;1.65;0.90;;;;;;;10.41;41.27;102004.94;5104482;28;20395;-72
2022/05/09 05:05:35;;;;;;;2.35;0.90;;;;;;;10.56;41.42;102002.44;5109100;27;20032;-72
2022/05/09 05:08:01;;;;;;;1.55;1.00;;;;;;;10.96;39.92;102006.97;5116730;27;20398;-72
2022/05/09 05:10:28;;;;;;;1.65;1.00;;;;;;;11.15;39.41;102005.63;5106386;27;20504;-73
2022/05/09 05:12:54;;;;;;;1.42;0.70;;;;;;;11.16;38.67;102011.94;5108040;27;20042;-72
2022/05/09 05:15:19;;;;;;;1.25;0.80;;;;;;;11.19;38.65;102014.19;5107003;28;20040;-73
2022/05/09 05:17:45;;;;;;;0.95;0.63;;;;;;;11.17;38.67;102008.09;5103739;27;20031;-72
2022/05/09 05:20:15;;;;;;;1.23;0.80;;;;;;;11.18;38.91;102010.59;5107104;28;20044;-72
2022/05/09 05:22:42;;;;;;;1.88;0.90;;;;;;;11.35;39.02;102016.06;5106931;27;20493;-72
2022/05/09 05:25:10;;;;;;;1.10;1.00;;;;;;;11.42;37.76;102011.22;5115231;27;20082;-72
2022/05/09 05:27:36;;;;;;;1.52;0.80;;;;;;;11.56;37.72;102013.59;5110627;28;20426;-72
2022/05/09 05:30:04;;;;;;;1.90;1.02;;;;;;;11.69;37.82;102013.25;5108891;27;20035;-72
2022/05/09 05:32:34;;;;;;;1.25;0.80;;;;;;;11.62;37.08;102016.16;5108087;28;20047;-73
2022/05/09 05:35:00;;;;;;;1.30;0.80;;;;;;;11.52;36.40;102027.03;5110749;27;20048;-72
2022/05/09 05:37:26;;;;;;;2.00;1.08;;;;;;;11.58;37.08;102020.50;5110202;27;20085;-72
2022/05/09 05:39:52;;;;;;;1.80;0.98;;;;;;;11.88;36.95;102022.03;5109494;28;20035;-72
2022/05/09 05:42:19;;;;;;;1.45;0.90;;;;;;;12.11;35.89;102027.25;5107124;27;20039;-72
2022/05/09 05:44:48;;;;;;;1.15;0.93;;;;;;;12.03;35.17;102028.56;5103919;28;20088;-72
2022/05/09 05:47:15;;;;;;;1.15;0.85;;;;;;;11.90;35.42;102025.34;5106942;27;20032;-72
2022/05/09 05:49:41;;;;;;;1.77;0.90;;;;;;;11.79;34.26;102027.13;5108709;27;20032;-73
2022/05/09 05:52:07;;;;;;;0.68;0.60;;;;;;;11.58;34.42;102033.41;5109308;27;20425;-73
2022/05/09 05:54:35;;;;;;;1.58;0.80;;;;;;;11.76;34.36;102028.44;5089512;28;20635;-73
2022/05/09 05:57:01;;;;;;;0.82;0.82;;;;;;;11.99;33.63;102032.09;5107672;27;20082;-73
2022/05/09 05:59:27;;;;;;;1.65;0.90;;;;;;;12.09;33.59;102032.19;5101277;28;20032;-72
2022/05/09 06:01:56;;;;;;;1.98;0.57;;;;;;;12.05;33.32;102034.63;5103354;28;20426;-73
2022/05/09 06:04:23;;;;;;;1.37;0.67;;;;;;;11.97;33.01;102026.81;5107521;28;20537;-72
2022/05/09 06:06:50;;;;;;;0.63;0.60;;;;;;;11.85;33.50;102036.31;5105765;28;20354;-72
2022/05/09 06:09:16;;;;;;;0.70;0.50;;;;;;;11.78;33.24;102033.69;5111687;27;20035;-72
2022/05/09 06:11:43;;;;;;;1.38;0.60;;;;;;;11.90;33.17;102034.44;5107546;28;20040;-72
2022/05/09 06:14:10;;;;;;;0.97;0.63;;;;;;;11.97;32.91;102031.47;5103157;28;20122;-72
2022/05/09 06:16:37;;;;;;;;;;;;;;;11.93;33.10;102027.59;5106352;28;20402;-73
2022/05/09 06:19:04;;;;;;;0.35;0.35;;;;;;;11.80;32.39;102036.22;5108762;28;19916;-72
2022/05/09 06:21:33;;;;;;;1.05;0.60;;;;;;;11.81;31.50;102035.16;5105519;27;20035;-73
2022/05/09 06:24:04;;;;;;;1.20;0.55;;;;;;;11.60;32.77;102045.81;5103834;28;20035;-73
2022/05/09 06:26:30;;;;;;;0.82;0.57;;;;;;;11.80;32.84;102044.47;5103036;28;20042;-73
2022/05/09 06:28:57;;;;;;;1.33;0.63;;;;;;;12.01;32.48;102047.25;5105439;28;20126;-73
2022/05/09 06:31:23;;;;;;;1.10;0.40;;;;;;;12.00;31.29;102045.59;5106276;28;20541;-73
2022/05/09 06:33:49;;;;;;;0.85;0.40;;;;;;;12.05;32.33;102048.38;5100280;28;20533;-73
2022/05/09 06:36:14;;;;;;;1.13;0.50;;;;;;;12.04;31.60;102049.47;5100717;28;20040;-73
2022/05/09 06:38:40;;;;;;;0.45;0.45;;;;;;;12.10;31.08;102052.28;5102422;28;20035;-73
2022/05/09 06:41:07;;;;;;;1.40;0.68;;;;;;;12.05;31.54;102053.06;5099598;28;20201;-73
2022/05/09 06:43:33;;;;;;;1.10;0.55;;;;;;;11.84;31.48;102049.22;5101667;28;20067;-73
2022/05/09 06:45:58;;;;;;;0.90;0.30;;;;;;;11.99;31.81;102049.41;5095621;28;20042;-72
2022/05/09 06:48:24;;;;;;;0.32;0.32;;;;;;;12.31;30.73;102057.75;5104752;28;20044;-73
2022/05/09 06:50:50;;;;;;;2.03;0.60;;;;;;;12.21;31.21;102056.81;5100209;28;20084;-73
2022/05/09 06:53:15;;;;;;;0.63;0.43;;;;;;;12.22;31.02;102056.56;5106107;28;20048;-73
2022/05/09 06:55:41;;;;;;;1.80;0.50;;;;;;;12.24;30.70;102059.06;5101630;28;20044;-73
2022/05/09 06:58:11;;;;;;;0.73;0.28;;;;;;;12.26;29.95;102049.44;5108533;28;20557;-73
2022/05/09 07:00:37;;;;;;;2.00;0.47;;;;;;;12.31;29.44;102056.94;5102755;28;20135;-73
2022/05/09 07:03:04;;;;;;;0.75;0.50;;;;;;;12.25;29.85;102055.22;5104621;27;20036;-73
2022/05/09 07:05:29;;;;;;;1.60;0.38;;;;;;;12.16;30.02;102062.28;5104374;28;20559;-73
2022/05/09 07:07:55;;;;;;;1.05;0.40;;;;;;;12.13;29.68;102051.75;5102009;28;20031;-73
2022/05/09 07:10:22;;;;;;;1.80;0.70;;;;;;;12.23;29.96;102058.22;5109067;28;20487;-73
2022/05/09 07:12:52;;;;;;;0.80;0.50;;;;;;;12.34;30.81;102057.28;5108320;28;20118;-73
2022/05/09 07:15:20;;;;;;;1.23;0.68;;;;;;;12.46;30.05;102059.03;5102652;28;20060;-73
2022/05/09 07:17:47;;;;;;;3.20;0.70;;;;;;;12.64;29.11;102064.16;5100038;28;20032;-73
2022/05/09 07:20:12;;;;;;;1.10;0.60;;;;;;;12.58;29.17;102063.28;5108465;28;20119;-73
2022/05/09 07:22:39;;;;;;;1.13;0.50;;;;;;;12.51;29.91;102059.09;5104688;27;20047;-73
2022/05/09 07:25:05;;;;;;;1.52;0.55;;;;;;;12.42;29.32;102074.41;5101177;28;20028;-73
2022/05/09 07:27:31;;;;;;;0.70;0.32;;;;;;;12.64;29.35;102061.41;5102681;28;20089;-73
2022/05/09 07:29:57;;;;;;;0.50;0.50;;;;;;;12.84;29.02;102066.28;5108016;28;20042;-71
2022/05/09 07:32:23;;;;;;;1.33;0.68;;;;;;;12.61;29.06;102062.75;5114238;27;20035;-73
2022/05/09 07:34:49;;;;;;;0.73;0.30;;;;;;;12.62;29.16;102066.34;5111047;27;20037;-73
2022/05/09 07:37:18;;;;;;;1.38;0.60;;;;;;;12.85;28.73;102076.22;5113836;27;20047;-73
2022/05/09 07:39:44;;;;;;;1.70;0.70;;;;;;;12.89;29.86;102067.19;5112560;28;20044;-73
2022/05/09 07:42:11;;;;;;;0.82;0.50;;;;;;;13.04;28.47;102072.00;5105492;28;20405;-73
2022/05/09 07:44:37;;;;;;;;;;;;;;;12.80;29.23;102074.25;5114659;27;20032;-73
2022/05/09 07:47:03;;;;;;;0.30;0.30;;;;;;;12.76;28.74;102080.53;5103860;27;19972;-73
2022/05/09 07:49:29;;;;;;;2.83;0.70;;;;;;;12.84;28.69;102080.06;5105841;28;20460;-73
2022/05/09 07:51:54;;;;;;;0.68;0.50;;;;;;;12.65;28.60;102082.34;5106685;27;20032;-73
2022/05/09 07:54:20;;;;;;;2.20;0.50;;;;;;;12.73;29.58;102086.56;5108604;28;20031;-73
2022/05/09 07:56:46;;;;;;;1.20;0.50;;;;;;;12.68;28.73;102081.84;5098686;28;20055;-73
2022/05/09 07:59:12;;;;;;;0.55;0.47;;;;;;;12.77;29.10;102076.69;5113536;27;20114;-73
2022/05/09 08:01:38;;;;;;;0.88;0.40;;;;;;;12.73;28.85;102076.38;5105039;28;20828;-73
2022/05/09 08:04:04;;;;;;;0.80;0.45;;;;;;;12.73;29.06;102072.81;5109078;28;20067;-73
2022/05/09 08:06:29;;;;;;;0.50;0.50;;;;;;;12.80;29.11;102071.47;5106220;27;20043;-73
2022/05/09 08:08:55;;;;;;;4.03;0.52;;;;;;;12.49;29.88;102077.78;5108875;27;20039;-73
2022/05/09 08:11:21;;;;;;;0.93;0.50;;;;;;;12.46;29.39;102075.53;5105016;28;20112;-73
2022/05/09 08:13:47;;;;;;;1.70;0.75;;;;;;;12.57;29.63;102071.81;5100581;28;20155;-72
2022/05/09 08:16:13;;;;;;;1.92;0.60;;;;;;;12.76;30.29;102073.09;5107284;28;20039;-73
2022/05/09 08:18:40;;;;;;;1.70;0.60;;;;;;;12.66;29.81;102079.34;5106173;28;20559;-73
2022/05/09 08:21:06;;;;;;;0.73;0.30;;;;;;;12.55;28.67;102083.09;5106551;28;20096;-73
2022/05/09 08:23:32;;;;;;;0.60;0.38;;;;;;;12.47;29.14;102077.19;5107602;28;20061;-73
2022/05/09 08:26:02;;;;;;;0.40;0.40;;;;;;;12.65;29.10;102080.44;5109809;28;20035;-73
2022/05/09 08:28:28;;;;;;;2.05;0.52;;;;;;;12.80;28.97;102077.00;5106122;28;20127;-72
2022/05/09 08:30:55;;;;;;;0.50;0.50;;;;;;;12.76;28.97;102089.63;5110775;28;21317;-73
2022/05/09 08:33:26;;;;;;;0.60;0.40;;;;;;;12.68;29.10;102084.59;5111952;28;20032;-72
2022/05/09 08:35:53;;;;;;;0.68;0.50;;;;;;;12.48;29.05;102081.63;5107060;28;20035;-73
2022/05/09 08:38:20;;;;;;;0.77;0.50;;;;;;;12.51;28.63;102089.38;5109267;28;20062;-73
2022/05/09 08:40:54;;;;;;;1.38;0.50;;;;;;;12.50;28.80;102079.47;5113212;28;20155;-72
2022/05/09 08:43:45;;;;;;;0.73;0.55;;;;;;;12.40;28.46;102085.69;5109612;28;20055;-73
2022/05/09 08:46:15;;;;;;;1.50;0.75;;;;;;;12.27;28.97;102081.38;5104313;28;20036;-72
2022/05/09 08:48:51;;;;;;;2.55;0.60;;;;;;;12.23;29.16;102083.00;5102487;27;20444;-72
2022/05/09 08:51:20;;;;;;;0.90;0.32;;;;;;;11.97;28.71;102086.50;5097097;28;20148;-72
2022/05/09 08:53:50;;;;;;;0.70;0.50;;;;;;;11.65;30.08;102086.34;5092308;28;20517;-72
2022/05/09 08:56:16;;;;;;;3.03;0.73;;;;;;;11.65;30.36;102078.91;5103584;28;20130;-72
2022/05/09 08:58:49;;;;;;;1.95;0.70;;;;;;;11.67;31.02;102084.16;5112736;27;20031;-71
2022/05/09 09:01:33;;;;;;;0.93;0.63;;;;;;;11.58;31.78;102077.41;5102178;28;20048;-71
2022/05/09 09:04:21;;;;;;;2.42;0.70;;;;;;;11.49;32.43;102088.03;5106596;28;20055;-72
2022/05/09 09:07:24;;;;;;;1.05;0.50;;;;;;;11.50;31.85;102095.19;5103459;27;20032;-72
2022/05/09 09:10:02;;;;;;;1.25;0.47;;;;;;;11.51;32.13;102096.00;5108541;27;20501;-72
2022/05/09 09:13:01;;;;;;;1.33;0.40;;;;;;;11.48;32.33;102097.34;5111927;27;20037;-72
2022/05/09 09:15:48;;;;;;;1.42;0.68;;;;;;;11.45;31.66;102092.34;5110139;28;20051;-72
2022/05/09 09:18:25;;;;;;;1.10;0.30;;;;;;;11.35;31.82;102098.53;5094996;28;20039;-72
2022/05/09 09:21:01;;;;;;;0.40;0.40;;;;;;;11.34;32.99;102096.03;5111301;28;20032;-72
2022/05/09 09:24:04;;;;;;;0.50;0.50;;;;;;;11.39;32.15;102093.34;5111057;28;20055;-72
2022/05/09 09:26:49;;;;;;;0.98;0.50;;;;;;;11.42;33.37;102101.09;5093698;28;20055;-72
2022/05/09 09:29:19;;;;;;;1.08;0.85;;;;;;;11.59;33.76;102101.91;5111355;27;20035;-72
2022/05/09 09:31:48;;;;;;;0.82;0.60;;;;;;;11.64;33.97;102104.75;5112550;27;20039;-73
2022/05/09 09:34:32;;;;;;;1.35;0.93;;;;;;;11.58;32.96;102102.97;5110339;28;20044;-72
2022/05/09 09:37:19;;;;;;;1.13;0.80;;;;;;;11.54;33.86;102107.34;5112792;27;20067;-72
2022/05/09 09:39:44;;;;;;;1.65;1.00;;;;;;;11.54;33.61;102104.59;5079132;28;20043;-72
2022/05/09 09:42:10;;;;;;;2.58;0.98;;;;;;;11.51;33.96;102102.34;5107086;28;20122;-73
2022/05/09 09:44:44;;;;;;;1.77;0.90;;;;;;;11.38;33.99;102108.16;5108419;27;20079;-72
2022/05/09 09:47:30;;;;;;;2.20;0.70;;;;;;;11.26;34.55;102111.00;5101378;28;20044;-73
2022/05/09 09:50:22;;;;;;;1.52;0.70;;;;;;;11.23;34.00;102110.66;5098593;28;20032;-73
2022/05/09 09:52:49;;;;;;;1.88;1.27;;;;;;;11.32;34.12;102109.19;5099989;28;20047;-72
2022/05/09 09:55:37;;;;;;;1.15;0.70;;;;;;;11.57;34.15;102104.06;5088819;28;20498;-72
2022/05/09 09:58:26;;;;;;;1.02;0.75;;;;;;;11.75;33.91;102098.28;5101559;28;20103;-71
2022/05/09 10:01:10;;;;;;;3.10;0.98;;;;;;;11.74;34.21;102090.28;5091294;28;20069;-71
2022/05/09 10:03:39;;;;;;;1.80;0.77;;;;;;;11.70;33.63;102095.47;5104384;28;20051;-70
2022/05/09 10:06:16;;;;;;;0.80;0.80;;;;;;;11.74;33.89;102099.38;5109353;27;20035;-71
2022/05/09 10:08:44;;;;;;;0.80;0.60;;;;;;;11.74;33.18;102096.63;5090582;28;20043;-71
2022/05/09 10:11:13;;;;;;;0.50;0.50;;;;;;;11.65;32.67;102108.31;5087794;27;20051;-72
2022/05/09 10:13:46;;;;;;;1.05;0.73;;;;;;;11.49;33.24;102107.25;5087357;28;20039;-72
2022/05/09 10:16:35;;;;;;;3.15;1.67;;;;;;;11.29;33.30;102115.19;5088146;28;20448;-72
2022/05/09 10:19:03;;;;;;;1.88;1.00;;;;;;;11.08;34.46;102114.00;5086173;28;20035;-71
2022/05/09 10:27:26;;;;;;;1.65;1.10;;;;;;;10.55;36.51;102139.91;5094216;28;20052;-75
2022/05/09 10:29:58;;;;;;;0.85;0.80;;;;;;;10.33;36.40;102139.75;5100083;28;20036;-71
2022/05/09 10:32:48;;;;;;;1.65;0.70;;;;;;;10.23;36.55;102134.03;5078398;28;20032;-75
2022/05/09 10:35:34;;;;;;;2.35;0.80;;;;;;;10.14;36.62;102135.50;5096008;28;20085;-76
2022/05/09 10:37:59;;;;;;;1.58;1.30;;;;;;;10.12;37.63;102141.22;5098869;28;20044;-75
2022/05/09 10:40:29;;;;;;;1.65;1.00;;;;;;;10.13;38.31;102142.06;5100393;28;20127;-77
2022/05/09 10:43:03;;;;;;;2.22;0.93;;;;;;;10.16;39.07;102128.69;5100196;28;20076;-75
2022/05/09 10:45:34;;;;;;;3.03;1.25;;;;;;;10.19;39.29;102130.09;5107270;28;20485;-81
2022/05/09 10:48:05;;;;;;;1.88;1.20;;;;;;;10.22;39.45;102129.63;5108927;28;20394;-75
2022/05/09 10:50:51;;;;;;;1.25;1.00;;;;;;;10.49;38.78;102133.50;5111855;28;20501;-80
2022/05/09 10:53:38;;;;;;;3.45;1.80;;;;;;;10.54;39.42;102128.09;5104263;28;20449;-80
2022/05/09 10:56:04;;;;;;;1.52;1.10;;;;;;;10.57;39.20;102124.88;5104668;28;20035;-79
2022/05/09 10:58:37;;;;;;;1.30;1.10;;;;;;;10.71;37.89;102119.09;5108438;28;20114;-79
2022/05/09 11:01:12;;;;;;;1.55;1.00;;;;;;;10.88;37.65;102117.22;5092804;28;20039;-80
2022/05/09 11:03:39;;;;;;;1.92;1.33;;;;;;;10.98;37.06;102116.56;5102136;28;20479;-80
2022/05/09 11:06:37;;;;;;;2.67;1.60;;;;;;;11.06;36.53;102114.25;5099587;28;20040;-80
2022/05/09 11:09:24;;;;;;;2.47;0.90;;;;;;;11.15;37.05;102110.00;5097001;27;20085;-80
2022/05/09 11:12:14;;;;;;;6.75;1.08;;;;;;;11.06;35.91;102114.25;5115750;27;20035;-77
2022/05/09 11:14:50;;;;;;;1.63;1.00;;;;;;;11.00;34.78;102117.16;5110302;27;20038;-75
2022/05/09 11:17:15;;;;;;;0.85;0.70;;;;;;;10.87;34.60;102119.13;5110806;27;20040;-76
2022/05/09 11:20:01;;;;;;;0.60;0.60;;;;;;;10.74;35.55;102122.16;5096183;28;20047;-75
2022/05/09 11:22:45;;;;;;;1.70;1.02;;;;;;;10.62;35.39;102129.66;5096232;28;20036;-78
2022/05/09 11:25:32;;;;;;;2.33;1.00;;;;;;;10.55;36.32;102121.53;5107938;28;20146;-78
2022/05/09 11:28:22;;;;;;;2.00;1.58;;;;;;;10.64;36.56;102124.75;5100101;28;20044;-78
2022/05/09 11:31:00;;;;;;;2.53;1.55;;;;;;;10.74;37.02;102124.91;5114081;28;20047;-77
2022/05/09 11:33:37;;;;;;;4.32;1.50;;;;;;;10.79;37.05;102122.28;5115078;28;20035;-77
2022/05/09 11:36:13;;;;;;;2.05;1.50;;;;;;;10.83;37.09;102122.63;5101873;28;20031;-77
2022/05/09 11:38:55;;;;;;;3.10;1.63;;;;;;;10.85;38.27;102114.97;5114614;28;20035;-77
2022/05/09 11:41:29;;;;;;;2.40;1.70;;;;;;;10.82;38.47;102112.72;5114719;28;20080;-77
2022/05/09 11:44:22;;;;;;;2.45;1.75;;;;;;;10.77;38.90;102113.47;5110857;28;20506;-77
2022/05/09 11:47:26;;;;;;;2.60;1.50;;;;;;;10.92;39.43;102112.88;5094382;28;20395;-77
2022/05/09 11:50:01;;;;;;;3.65;1.85;;;;;;;11.04;40.11;102107.34;5034769;28;20041;-81
2022/05/09 11:52:30;;;;;;;2.83;1.70;;;;;;;11.09;39.93;102108.25;5089609;28;20044;-78
2022/05/09 11:55:13;;;;;;;1.73;1.40;;;;;;;10.96;41.00;102111.34;5096603;28;20044;-79